createdAt,value
2018-02-13T00:00:37.368Z,94.56
2018-02-13T00:01:37.380Z,94.56
2018-02-13T00:02:37.391Z,94.79
2018-02-13T00:03:37.406Z,95.26
2018-02-13T00:04:37.422Z,95.03
2018-02-13T00:05:37.433Z,95.17
2018-02-13T00:06:37.455Z,95.40
2018-02-13T00:07:37.466Z,95.21
2018-02-13T00:08:37.476Z,94.93
2018-02-13T00:09:37.489Z,95.31
2018-02-13T00:10:37.505Z,95.50
2018-02-13T00:11:37.513Z,95.31
2018-02-13T00:12:37.523Z,95.40
2018-02-13T00:13:37.541Z,95.45
2018-02-13T00:14:37.553Z,95.83
2018-02-13T00:15:37.568Z,95.69
2018-02-13T00:16:37.578Z,95.88
2018-02-13T00:17:37.591Z,95.83
2018-02-13T00:18:37.604Z,95.83
2018-02-13T00:19:37.625Z,95.97
2018-02-13T00:20:37.631Z,95.97
2018-02-13T00:21:37.646Z,95.69
2018-02-13T00:22:37.664Z,95.88
2018-02-13T00:23:37.675Z,96.07
2018-02-13T00:24:37.685Z,95.97
2018-02-13T00:25:37.701Z,96.07
2018-02-13T00:26:37.710Z,96.31
2018-02-13T00:27:37.726Z,96.31
2018-02-13T00:28:37.741Z,96.16
2018-02-13T00:29:37.753Z,95.93
2018-02-13T00:30:37.761Z,96.26
2018-02-13T00:31:37.775Z,96.31
2018-02-13T00:32:37.797Z,95.88
2018-02-13T00:33:37.806Z,96.21
2018-02-13T00:34:37.825Z,95.88
2018-02-13T00:35:37.831Z,96.12
2018-02-13T00:36:37.843Z,96.40
2018-02-13T00:37:37.855Z,95.83
2018-02-13T00:38:37.865Z,95.83
2018-02-13T00:39:37.886Z,95.45
2018-02-13T00:40:37.897Z,95.26
2018-02-13T00:41:37.908Z,95.07
2018-02-13T00:42:37.922Z,95.36
2018-02-13T00:43:37.933Z,95.26
2018-02-13T00:44:37.950Z,95.36
2018-02-13T00:45:37.962Z,95.45
2018-02-13T00:46:37.971Z,94.98
2018-02-13T00:47:37.984Z,94.89
2018-02-13T00:48:38.004Z,95.26
2018-02-13T00:49:38.017Z,95.45
2018-02-13T00:50:38.025Z,95.12
2018-02-13T00:51:38.048Z,95.31
2018-02-13T00:52:38.055Z,95.40
2018-02-13T00:53:38.072Z,95.74
2018-02-13T00:54:38.086Z,95.97
2018-02-13T00:55:38.097Z,96.26
2018-02-13T00:56:38.110Z,96.16
2018-02-13T00:57:38.118Z,96.26
2018-02-13T00:58:38.132Z,96.35
2018-02-13T00:59:38.145Z,96.35
2018-02-13T01:00:38.166Z,96.35
2018-02-13T01:01:38.170Z,96.35
2018-02-13T01:02:38.186Z,96.35
2018-02-13T01:03:38.199Z,96.35
2018-02-13T01:04:38.213Z,96.54
2018-02-13T01:05:38.229Z,96.35
2018-02-13T01:06:38.241Z,96.35
2018-02-13T01:07:38.249Z,96.45
2018-02-13T01:08:38.266Z,96.64
2018-02-13T01:09:38.276Z,96.73
2018-02-13T01:10:38.291Z,96.92
2018-02-13T01:11:38.303Z,97.30
2018-02-13T01:12:38.315Z,97.20
2018-02-13T01:13:38.332Z,96.92
2018-02-13T01:14:38.343Z,96.92
2018-02-13T01:15:38.354Z,96.54
2018-02-13T01:16:38.367Z,96.83
2018-02-13T01:17:38.385Z,96.83
2018-02-13T01:18:38.395Z,96.73
2018-02-13T01:19:38.414Z,96.54
2018-02-13T01:20:38.423Z,96.45
2018-02-13T01:21:38.437Z,96.73
2018-02-13T01:22:38.454Z,97.11
2018-02-13T01:23:38.459Z,96.83
2018-02-13T01:24:38.474Z,96.64
2018-02-13T01:25:38.488Z,96.64
2018-02-13T01:26:38.500Z,96.54
2018-02-13T01:27:38.514Z,96.54
2018-02-13T01:28:38.525Z,96.26
2018-02-13T01:29:38.538Z,96.73
2018-02-13T01:30:38.555Z,96.83
2018-02-13T01:31:38.573Z,95.97
2018-02-13T01:32:38.577Z,95.78
2018-02-13T01:33:38.592Z,96.54
2018-02-13T01:34:38.602Z,96.64
2018-02-13T01:35:38.639Z,96.54
2018-02-13T01:36:38.637Z,96.35
2018-02-13T01:37:38.646Z,96.35
2018-02-13T01:38:38.663Z,96.73
2018-02-13T01:39:38.670Z,96.92
2018-02-13T01:40:38.685Z,96.54
2018-02-13T01:41:38.708Z,96.92
2018-02-13T01:42:38.712Z,96.73
2018-02-13T01:43:38.726Z,96.73
2018-02-13T01:44:38.735Z,96.92
2018-02-13T01:45:38.749Z,96.73
2018-02-13T01:46:38.758Z,96.83
2018-02-13T01:47:38.788Z,96.92
2018-02-13T01:48:38.792Z,96.83
2018-02-13T01:49:38.823Z,96.73
2018-02-13T01:50:38.831Z,96.35
2018-02-13T01:51:38.840Z,96.64
2018-02-13T01:52:38.856Z,96.73
2018-02-13T01:53:38.853Z,96.73
2018-02-13T01:54:38.864Z,97.01
2018-02-13T01:55:38.878Z,96.73
2018-02-13T01:56:38.891Z,96.73
2018-02-13T01:57:38.903Z,96.64
2018-02-13T01:58:38.914Z,96.64
2018-02-13T01:59:38.931Z,96.45
2018-02-13T02:00:38.942Z,96.45
2018-02-13T02:01:38.955Z,96.54
2018-02-13T02:02:38.987Z,97.11
2018-02-13T02:03:38.989Z,96.83
2018-02-13T02:04:39.006Z,96.92
2018-02-13T02:05:39.008Z,96.54
2018-02-13T02:06:39.025Z,96.73
2018-02-13T02:07:39.038Z,96.64
2018-02-13T02:08:39.056Z,96.92
2018-02-13T02:09:39.067Z,96.92
2018-02-13T02:10:39.072Z,96.35
2018-02-13T02:11:39.090Z,96.26
2018-02-13T02:12:39.100Z,96.54
2018-02-13T02:13:39.112Z,96.64
2018-02-13T02:14:39.122Z,96.73
2018-02-13T02:15:39.149Z,95.78
2018-02-13T02:16:39.159Z,95.97
2018-02-13T02:17:39.164Z,95.78
2018-02-13T02:18:39.177Z,95.88
2018-02-13T02:19:39.192Z,96.16
2018-02-13T02:20:39.201Z,96.02
2018-02-13T02:21:39.221Z,95.88
2018-02-13T02:22:39.228Z,95.78
2018-02-13T02:23:39.253Z,96.35
2018-02-13T02:24:39.256Z,96.16
2018-02-13T02:25:39.288Z,95.97
2018-02-13T02:26:39.304Z,95.97
2018-02-13T02:27:39.308Z,95.97
2018-02-13T02:28:39.317Z,96.16
2018-02-13T02:29:39.340Z,96.07
2018-02-13T02:30:39.351Z,95.97
2018-02-13T02:31:39.342Z,95.97
2018-02-13T02:32:39.360Z,95.97
2018-02-13T02:33:39.372Z,96.73
2018-02-13T02:34:39.401Z,95.88
2018-02-13T02:35:39.409Z,95.97
2018-02-13T02:36:39.413Z,96.07
2018-02-13T02:37:39.474Z,96.07
2018-02-13T02:38:39.436Z,95.97
2018-02-13T02:39:39.449Z,96.07
2018-02-13T02:40:39.493Z,96.16
2018-02-13T02:41:39.474Z,96.16
2018-02-13T02:42:39.487Z,95.97
2018-02-13T02:43:39.512Z,95.88
2018-02-13T02:44:39.513Z,95.88
2018-02-13T02:45:39.529Z,96.07
2018-02-13T02:46:39.544Z,96.07
2018-02-13T02:47:39.551Z,95.97
2018-02-13T02:48:39.565Z,95.88
2018-02-13T02:49:39.593Z,96.64
2018-02-13T02:50:39.595Z,96.92
2018-02-13T02:51:39.606Z,96.92
2018-02-13T02:52:39.632Z,97.30
2018-02-13T02:53:39.630Z,97.49
2018-02-13T02:54:39.645Z,97.86
2018-02-13T02:55:39.656Z,97.67
2018-02-13T02:56:39.674Z,97.77
2018-02-13T02:57:39.685Z,98.33
2018-02-13T02:58:39.696Z,98.33
2018-02-13T02:59:39.706Z,98.52
2018-02-13T03:00:39.723Z,98.81
2018-02-13T03:01:39.734Z,99.09
2018-02-13T03:02:39.745Z,99.19
2018-02-13T03:03:39.759Z,99.28
2018-02-13T03:04:39.774Z,99.38
2018-02-13T03:05:39.782Z,98.71
2018-02-13T03:06:39.798Z,99.00
2018-02-13T03:07:39.810Z,99.19
2018-02-13T03:08:39.823Z,98.52
2018-02-13T03:09:39.841Z,98.43
2018-02-13T03:10:39.849Z,98.33
2018-02-13T03:11:39.862Z,98.62
2018-02-13T03:12:39.875Z,97.86
2018-02-13T03:13:39.925Z,98.43
2018-02-13T03:14:39.900Z,98.05
2018-02-13T03:15:39.916Z,97.96
2018-02-13T03:16:39.927Z,98.05
2018-02-13T03:17:39.937Z,98.05
2018-02-13T03:18:39.953Z,97.49
2018-02-13T03:19:39.963Z,97.67
2018-02-13T03:20:39.980Z,97.86
2018-02-13T03:21:39.991Z,97.77
2018-02-13T03:22:40.003Z,97.67
2018-02-13T03:23:40.018Z,98.43
2018-02-13T03:24:40.030Z,98.05
2018-02-13T03:25:40.042Z,99.09
2018-02-13T03:26:40.062Z,98.81
2018-02-13T03:27:40.074Z,98.90
2018-02-13T03:28:40.084Z,98.71
2018-02-13T03:29:40.097Z,99.38
2018-02-13T03:30:40.109Z,98.81
2018-02-13T03:31:40.121Z,98.52
2018-02-13T03:32:40.131Z,99.28
2018-02-13T03:33:40.146Z,99.38
2018-02-13T03:34:40.156Z,99.38
2018-02-13T03:35:40.173Z,99.00
2018-02-13T03:36:40.184Z,98.90
2018-02-13T03:37:40.196Z,99.38
2018-02-13T03:38:40.210Z,99.19
2018-02-13T03:39:40.221Z,98.90
2018-02-13T03:40:40.232Z,98.90
2018-02-13T03:41:40.252Z,98.81
2018-02-13T03:42:40.260Z,98.81
2018-02-13T03:43:40.274Z,98.52
2018-02-13T03:44:40.290Z,98.52
2018-02-13T03:45:40.303Z,97.96
2018-02-13T03:46:40.312Z,98.24
2018-02-13T03:47:40.324Z,97.77
2018-02-13T03:48:40.336Z,97.96
2018-02-13T03:49:40.351Z,97.96
2018-02-13T03:50:40.360Z,98.24
2018-02-13T03:51:40.378Z,98.05
2018-02-13T03:52:40.386Z,98.52
2018-02-13T03:53:40.407Z,98.05
2018-02-13T03:54:40.419Z,98.71
2018-02-13T03:55:40.430Z,98.62
2018-02-13T03:56:40.440Z,98.62
2018-02-13T03:57:40.454Z,98.43
2018-02-13T03:58:40.468Z,97.96
2018-02-13T03:59:40.480Z,98.24
2018-02-13T04:00:40.490Z,98.62
2018-02-13T04:01:40.506Z,98.71
2018-02-13T04:02:40.515Z,98.62
2018-02-13T04:03:40.527Z,98.33
2018-02-13T04:04:40.546Z,98.81
2018-02-13T04:05:40.557Z,98.71
2018-02-13T04:06:40.567Z,99.09
2018-02-13T04:07:40.581Z,98.81
2018-02-13T04:08:40.593Z,98.81
2018-02-13T04:09:40.609Z,99.09
2018-02-13T04:10:40.619Z,99.28
2018-02-13T04:11:40.632Z,99.76
2018-02-13T04:12:40.647Z,99.99
2018-02-13T04:13:40.659Z,99.99
2018-02-13T04:14:40.672Z,99.99
2018-02-13T04:15:40.681Z,99.99
2018-02-13T04:16:40.696Z,99.99
2018-02-13T04:17:40.710Z,99.99
2018-02-13T04:18:40.719Z,99.99
2018-02-13T04:19:40.735Z,99.99
2018-02-13T04:20:40.748Z,99.99
2018-02-13T04:21:40.757Z,99.99
2018-02-13T04:22:40.774Z,99.99
2018-02-13T04:23:40.788Z,99.99
2018-02-13T04:24:40.797Z,99.99
2018-02-13T04:25:40.811Z,99.99
2018-02-13T04:26:40.820Z,99.57
2018-02-13T04:27:40.840Z,99.99
2018-02-13T04:28:40.848Z,99.76
2018-02-13T04:29:40.861Z,99.85
2018-02-13T04:30:40.874Z,99.85
2018-02-13T04:31:40.888Z,99.19
2018-02-13T04:32:40.899Z,99.00
2018-02-13T04:33:40.912Z,98.81
2018-02-13T04:34:40.924Z,99.09
2018-02-13T04:35:40.939Z,99.00
2018-02-13T04:36:40.952Z,99.09
2018-02-13T04:37:40.959Z,98.90
2018-02-13T04:38:40.978Z,98.62
2018-02-13T04:39:40.984Z,99.38
2018-02-13T04:40:40.999Z,98.90
2018-02-13T04:41:41.013Z,99.00
2018-02-13T04:42:41.022Z,98.81
2018-02-13T04:43:41.041Z,98.62
2018-02-13T04:44:41.051Z,98.81
2018-02-13T04:45:41.102Z,98.33
2018-02-13T04:46:41.074Z,98.24
2018-02-13T04:47:41.090Z,97.86
2018-02-13T04:48:41.102Z,98.05
2018-02-13T04:49:41.112Z,97.49
2018-02-13T04:50:41.125Z,97.77
2018-02-13T04:51:41.137Z,97.96
2018-02-13T04:52:41.149Z,97.58
2018-02-13T04:53:41.168Z,98.33
2018-02-13T04:54:41.174Z,98.43
2018-02-13T04:55:41.189Z,98.43
2018-02-13T04:56:41.219Z,98.33
2018-02-13T04:57:41.214Z,98.33
2018-02-13T04:58:41.236Z,98.52
2018-02-13T04:59:41.238Z,98.33
2018-02-13T05:00:41.253Z,98.24
2018-02-13T05:01:41.278Z,98.43
2018-02-13T05:02:41.277Z,98.43
2018-02-13T05:03:41.304Z,97.67
2018-02-13T05:04:41.307Z,98.05
2018-02-13T05:05:41.324Z,98.05
2018-02-13T05:06:41.334Z,97.30
2018-02-13T05:07:41.340Z,97.30
2018-02-13T05:08:41.353Z,97.77
2018-02-13T05:09:41.375Z,97.86
2018-02-13T05:10:41.394Z,97.91
2018-02-13T05:11:41.391Z,97.49
2018-02-13T05:12:41.407Z,97.72
2018-02-13T05:13:41.429Z,97.58
2018-02-13T05:14:41.436Z,98.05
2018-02-13T05:15:41.466Z,97.77
2018-02-13T05:16:41.457Z,97.96
2018-02-13T05:17:41.469Z,98.01
2018-02-13T05:18:41.481Z,98.20
2018-02-13T05:19:41.515Z,97.67
2018-02-13T05:20:41.509Z,97.49
2018-02-13T05:21:41.524Z,97.30
2018-02-13T05:22:41.534Z,97.30
2018-02-13T05:23:41.545Z,97.39
2018-02-13T05:24:41.572Z,97.39
2018-02-13T05:25:41.596Z,97.34
2018-02-13T05:26:41.582Z,97.11
2018-02-13T05:27:41.593Z,97.11
2018-02-13T05:28:41.611Z,97.20
2018-02-13T05:29:41.643Z,97.01
2018-02-13T05:30:41.649Z,97.58
2018-02-13T05:31:41.646Z,97.77
2018-02-13T05:32:41.663Z,97.86
2018-02-13T05:33:41.671Z,98.24
2018-02-13T05:34:41.684Z,98.33
2018-02-13T05:35:41.748Z,98.14
2018-02-13T05:36:41.709Z,97.96
2018-02-13T05:37:41.727Z,98.33
2018-02-13T05:38:41.735Z,98.24
2018-02-13T05:39:41.783Z,98.43
2018-02-13T05:40:41.803Z,98.05
2018-02-13T05:41:41.788Z,98.14
2018-02-13T05:42:41.796Z,98.43
2018-02-13T05:43:41.799Z,98.24
2018-02-13T05:44:41.815Z,98.33
2018-02-13T05:45:41.827Z,98.05
2018-02-13T05:46:41.839Z,98.05
2018-02-13T05:47:41.851Z,98.24
2018-02-13T05:48:41.867Z,98.14
2018-02-13T05:49:41.878Z,98.43
2018-02-13T05:50:41.892Z,98.43
2018-02-13T05:51:41.905Z,98.43
2018-02-13T05:52:41.914Z,97.96
2018-02-13T05:53:41.927Z,98.62
2018-02-13T05:54:41.939Z,98.81
2018-02-13T05:55:41.962Z,98.33
2018-02-13T05:56:41.974Z,98.24
2018-02-13T05:57:41.982Z,98.14
2018-02-13T05:58:41.990Z,97.96
2018-02-13T05:59:42.007Z,98.62
2018-02-13T06:00:42.028Z,98.81
2018-02-13T06:01:42.038Z,98.52
2018-02-13T06:02:42.054Z,98.90
2018-02-13T06:03:42.056Z,98.81
2018-02-13T06:04:42.070Z,98.43
2018-02-13T06:05:42.082Z,98.90
2018-02-13T06:06:42.092Z,98.71
2018-02-13T06:07:42.104Z,98.90
2018-02-13T06:08:42.124Z,98.81
2018-02-13T06:09:42.132Z,99.09
2018-02-13T06:10:42.145Z,99.00
2018-02-13T06:11:42.156Z,99.28
2018-02-13T06:12:42.172Z,99.00
2018-02-13T06:13:42.196Z,99.19
2018-02-13T06:14:42.195Z,99.47
2018-02-13T06:15:42.209Z,99.19
2018-02-13T06:16:42.221Z,99.28
2018-02-13T06:17:42.233Z,98.81
2018-02-13T06:18:42.250Z,98.81
2018-02-13T06:19:42.257Z,98.90
2018-02-13T06:20:42.273Z,98.81
2018-02-13T06:21:42.281Z,98.90
2018-02-13T06:22:42.295Z,98.81
2018-02-13T06:23:42.308Z,98.81
2018-02-13T06:24:42.321Z,98.71
2018-02-13T06:25:42.332Z,98.62
2018-02-13T06:26:42.347Z,98.33
2018-02-13T06:27:42.362Z,99.00
2018-02-13T06:28:42.372Z,99.09
2018-02-13T06:29:42.384Z,99.09
2018-02-13T06:30:42.398Z,99.00
2018-02-13T06:31:42.409Z,99.99
2018-02-13T06:32:42.421Z,99.76
2018-02-13T06:33:42.436Z,99.57
2018-02-13T06:34:42.453Z,99.47
2018-02-13T06:35:42.461Z,99.00
2018-02-13T06:36:42.476Z,99.19
2018-02-13T06:37:42.487Z,98.52
2018-02-13T06:38:42.495Z,98.62
2018-02-13T06:39:42.511Z,97.96
2018-02-13T06:40:42.523Z,98.43
2018-02-13T06:41:42.534Z,98.05
2018-02-13T06:42:42.549Z,97.67
2018-02-13T06:43:42.563Z,97.86
2018-02-13T06:44:42.572Z,97.96
2018-02-13T06:45:42.589Z,97.96
2018-02-13T06:46:42.598Z,97.49
2018-02-13T06:47:42.611Z,97.86
2018-02-13T06:48:42.628Z,97.67
2018-02-13T06:49:42.634Z,97.86
2018-02-13T06:50:42.648Z,97.96
2018-02-13T06:51:42.661Z,97.58
2018-02-13T06:52:42.678Z,97.01
2018-02-13T06:53:42.685Z,97.20
2018-02-13T06:54:42.708Z,97.30
2018-02-13T06:55:42.710Z,96.92
2018-02-13T06:56:42.723Z,96.26
2018-02-13T06:57:42.734Z,96.54
2018-02-13T06:58:42.750Z,96.35
2018-02-13T06:59:42.761Z,95.69
2018-02-13T07:00:42.776Z,96.16
2018-02-13T07:01:42.785Z,95.59
2018-02-13T07:02:42.799Z,95.59
2018-02-13T07:03:42.813Z,95.59
2018-02-13T07:04:42.832Z,95.59
2018-02-13T07:05:42.852Z,95.50
2018-02-13T07:06:42.848Z,95.50
2018-02-13T07:07:42.863Z,95.59
2018-02-13T07:08:42.877Z,95.97
2018-02-13T07:09:42.896Z,95.78
2018-02-13T07:10:42.901Z,95.59
2018-02-13T07:11:42.915Z,96.35
2018-02-13T07:12:42.925Z,96.16
2018-02-13T07:13:42.947Z,95.78
2018-02-13T07:14:42.952Z,95.59
2018-02-13T07:15:43.021Z,95.50
2018-02-13T07:16:42.984Z,95.59
2018-02-13T07:17:43.012Z,95.45
2018-02-13T07:18:43.012Z,95.12
2018-02-13T07:19:43.013Z,95.07
2018-02-13T07:20:43.028Z,94.56
2018-02-13T07:21:43.065Z,94.60
2018-02-13T07:22:43.088Z,95.31
2018-02-13T07:23:43.069Z,95.31
2018-02-13T07:24:43.082Z,95.59
2018-02-13T07:25:43.093Z,95.78
2018-02-13T07:26:43.107Z,96.64
2018-02-13T07:27:43.121Z,96.54
2018-02-13T07:28:43.132Z,96.54
2018-02-13T07:29:43.149Z,96.54
2018-02-13T07:30:43.159Z,96.54
2018-02-13T07:31:43.178Z,96.45
2018-02-13T07:32:43.187Z,96.64
2018-02-13T07:33:43.194Z,96.07
2018-02-13T07:34:43.216Z,96.54
2018-02-13T07:35:43.227Z,96.54
2018-02-13T07:36:43.235Z,96.35
2018-02-13T07:37:43.246Z,96.35
2018-02-13T07:38:43.261Z,96.45
2018-02-13T07:39:43.273Z,96.54
2018-02-13T07:40:43.304Z,96.83
2018-02-13T07:41:43.299Z,95.83
2018-02-13T07:42:43.318Z,95.55
2018-02-13T07:43:43.326Z,94.98
2018-02-13T07:44:43.340Z,95.07
2018-02-13T07:45:43.353Z,95.17
2018-02-13T07:46:43.362Z,95.07
2018-02-13T07:47:43.377Z,95.64
2018-02-13T07:48:43.387Z,95.36
2018-02-13T07:49:43.403Z,95.45
2018-02-13T07:50:43.415Z,95.26
2018-02-13T07:51:43.429Z,95.07
2018-02-13T07:52:43.441Z,95.36
2018-02-13T07:53:43.456Z,94.60
2018-02-13T07:54:43.465Z,94.13
2018-02-13T07:55:43.479Z,94.04
2018-02-13T07:56:43.494Z,93.85
2018-02-13T07:57:43.505Z,92.99
2018-02-13T07:58:43.528Z,93.47
2018-02-13T07:59:43.537Z,92.57
2018-02-13T08:00:43.546Z,92.10
2018-02-13T08:01:43.559Z,91.81
2018-02-13T08:02:43.569Z,91.72
2018-02-13T08:03:43.581Z,92.10
2018-02-13T08:04:43.595Z,91.62
2018-02-13T08:05:43.618Z,91.53
2018-02-13T08:06:43.624Z,90.96
2018-02-13T08:07:43.649Z,90.77
2018-02-13T08:08:43.651Z,90.77
2018-02-13T08:09:43.668Z,91.15
2018-02-13T08:10:43.676Z,90.20
2018-02-13T08:11:43.689Z,90.39
2018-02-13T08:12:43.706Z,91.15
2018-02-13T08:13:43.717Z,90.39
2018-02-13T08:14:43.732Z,90.20
2018-02-13T08:15:43.745Z,90.20
2018-02-13T08:16:43.755Z,90.20
2018-02-13T08:17:43.774Z,90.39
2018-02-13T08:18:43.797Z,89.73
2018-02-13T08:19:43.810Z,89.63
2018-02-13T08:20:43.812Z,89.63
2018-02-13T08:21:43.824Z,90.01
2018-02-13T08:22:43.845Z,89.73
2018-02-13T08:23:43.849Z,89.77
2018-02-13T08:24:43.929Z,89.20
2018-02-13T08:25:43.878Z,89.30
2018-02-13T08:26:43.890Z,89.20
2018-02-13T08:27:43.912Z,89.01
2018-02-13T08:28:43.922Z,89.20
2018-02-13T08:29:43.928Z,89.01
2018-02-13T08:30:43.990Z,88.64
2018-02-13T08:31:43.960Z,88.92
2018-02-13T08:32:43.971Z,88.82
2018-02-13T08:33:43.985Z,88.73
2018-02-13T08:34:44.023Z,88.82
2018-02-13T08:35:44.017Z,88.82
2018-02-13T08:36:44.028Z,88.82
2018-02-13T08:37:44.049Z,88.45
2018-02-13T08:38:44.063Z,88.73
2018-02-13T08:39:44.082Z,88.45
2018-02-13T08:40:44.084Z,88.26
2018-02-13T08:41:44.094Z,88.45
2018-02-13T08:42:44.112Z,88.17
2018-02-13T08:43:44.120Z,88.45
2018-02-13T08:44:44.133Z,88.54
2018-02-13T08:45:44.154Z,88.35
2018-02-13T08:46:44.165Z,88.92
2018-02-13T08:47:44.175Z,89.20
2018-02-13T08:48:44.193Z,88.92
2018-02-13T08:49:44.205Z,88.82
2018-02-13T08:50:44.221Z,88.92
2018-02-13T08:51:44.233Z,88.82
2018-02-13T08:52:44.246Z,89.01
2018-02-13T08:53:44.264Z,88.54
2018-02-13T08:54:44.276Z,88.11
2018-02-13T08:55:44.310Z,87.35
2018-02-13T08:56:44.301Z,87.92
2018-02-13T08:57:44.317Z,87.35
2018-02-13T08:58:44.333Z,87.45
2018-02-13T08:59:44.347Z,87.54
2018-02-13T09:00:44.360Z,87.26
2018-02-13T09:01:44.425Z,87.45
2018-02-13T09:02:44.389Z,87.35
2018-02-13T09:03:44.405Z,87.64
2018-02-13T09:04:44.420Z,87.54
2018-02-13T09:05:44.431Z,87.54
2018-02-13T09:06:44.475Z,87.26
2018-02-13T09:07:44.458Z,86.98
2018-02-13T09:08:44.479Z,86.88
2018-02-13T09:09:44.488Z,87.07
2018-02-13T09:10:44.505Z,86.98
2018-02-13T09:11:44.516Z,87.07
2018-02-13T09:12:44.530Z,86.31
2018-02-13T09:13:44.544Z,86.98
2018-02-13T09:14:44.639Z,86.22
2018-02-13T09:15:44.574Z,86.03
2018-02-13T09:16:44.585Z,85.84
2018-02-13T09:17:44.601Z,85.36
2018-02-13T09:18:44.618Z,85.50
2018-02-13T09:19:44.687Z,85.31
2018-02-13T09:20:44.646Z,85.13
2018-02-13T09:21:44.666Z,84.99
2018-02-13T09:22:44.678Z,85.13
2018-02-13T09:23:44.689Z,84.65
2018-02-13T09:24:44.704Z,85.03
2018-02-13T09:25:44.718Z,84.46
2018-02-13T09:26:44.736Z,84.74
2018-02-13T09:27:44.748Z,85.36
2018-02-13T09:28:44.764Z,85.03
2018-02-13T09:29:44.776Z,85.50
2018-02-13T09:30:44.791Z,85.31
2018-02-13T09:31:44.804Z,84.65
2018-02-13T09:32:44.820Z,85.13
2018-02-13T09:33:44.835Z,85.13
2018-02-13T09:34:44.860Z,85.22
2018-02-13T09:35:44.865Z,85.22
2018-02-13T09:36:44.879Z,85.88
2018-02-13T09:37:44.894Z,85.41
2018-02-13T09:38:44.907Z,85.03
2018-02-13T09:39:44.921Z,84.55
2018-02-13T09:40:44.934Z,85.50
2018-02-13T09:41:44.951Z,84.94
2018-02-13T09:42:44.965Z,84.84
2018-02-13T09:43:44.986Z,84.65
2018-02-13T09:44:44.995Z,84.65
2018-02-13T09:45:45.015Z,84.27
2018-02-13T09:46:45.026Z,83.89
2018-02-13T09:47:45.042Z,83.80
2018-02-13T09:48:45.058Z,83.89
2018-02-13T09:49:45.073Z,83.51
2018-02-13T09:50:45.084Z,83.98
2018-02-13T09:51:45.097Z,83.42
2018-02-13T09:52:45.114Z,83.61
2018-02-13T09:53:45.133Z,83.23
2018-02-13T09:54:45.142Z,83.04
2018-02-13T09:55:45.192Z,83.23
2018-02-13T09:56:45.172Z,83.61
2018-02-13T09:57:45.189Z,83.13
2018-02-13T09:58:45.202Z,83.32
2018-02-13T09:59:45.217Z,83.23
2018-02-13T10:00:45.233Z,83.23
2018-02-13T10:01:45.249Z,83.32
2018-02-13T10:02:45.263Z,83.70
2018-02-13T10:03:45.279Z,83.51
2018-02-13T10:04:45.298Z,83.23
2018-02-13T10:05:45.306Z,82.60
2018-02-13T10:06:45.320Z,82.60
2018-02-13T10:07:45.336Z,82.42
2018-02-13T10:08:45.351Z,82.32
2018-02-13T10:09:45.367Z,82.32
2018-02-13T10:10:45.382Z,81.85
2018-02-13T10:11:45.396Z,81.56
2018-02-13T10:12:45.413Z,82.13
2018-02-13T10:13:45.426Z,81.56
2018-02-13T10:14:45.440Z,81.85
2018-02-13T10:15:45.463Z,80.71
2018-02-13T10:16:45.475Z,81.09
2018-02-13T10:17:45.489Z,81.18
2018-02-13T10:18:45.499Z,80.99
2018-02-13T10:19:45.516Z,81.09
2018-02-13T10:20:45.529Z,81.56
2018-02-13T10:21:45.546Z,80.90
2018-02-13T10:22:45.560Z,80.99
2018-02-13T10:23:45.573Z,81.09
2018-02-13T10:24:45.590Z,80.90
2018-02-13T10:25:45.606Z,80.90
2018-02-13T10:26:45.619Z,80.80
2018-02-13T10:27:45.644Z,80.80
2018-02-13T10:28:45.651Z,80.80
2018-02-13T10:29:45.667Z,80.80
2018-02-13T10:30:45.682Z,80.99
2018-02-13T10:31:45.695Z,81.27
2018-02-13T10:32:45.707Z,80.99
2018-02-13T10:33:45.727Z,80.99
2018-02-13T10:34:45.742Z,80.80
2018-02-13T10:35:45.789Z,80.80
2018-02-13T10:36:45.772Z,81.09
2018-02-13T10:37:45.783Z,81.37
2018-02-13T10:38:45.806Z,81.09
2018-02-13T10:39:45.817Z,80.90
2018-02-13T10:40:45.831Z,80.52
2018-02-13T10:41:45.851Z,80.14
2018-02-13T10:42:45.860Z,80.52
2018-02-13T10:43:45.877Z,80.43
2018-02-13T10:44:45.891Z,81.37
2018-02-13T10:45:45.910Z,81.09
2018-02-13T10:46:45.928Z,80.90
2018-02-13T10:47:45.941Z,80.80
2018-02-13T10:48:45.953Z,80.62
2018-02-13T10:49:46.031Z,80.52
2018-02-13T10:50:45.981Z,80.43
2018-02-13T10:51:46.009Z,79.99
2018-02-13T10:52:46.019Z,80.27
2018-02-13T10:53:46.048Z,80.27
2018-02-13T10:54:46.045Z,80.18
2018-02-13T10:55:46.067Z,80.04
2018-02-13T10:56:46.073Z,79.90
2018-02-13T10:57:46.106Z,79.61
2018-02-13T10:58:46.110Z,79.14
2018-02-13T10:59:46.126Z,79.33
2018-02-13T11:00:46.137Z,79.61
2018-02-13T11:01:46.153Z,79.52
2018-02-13T11:02:46.165Z,79.33
2018-02-13T11:03:46.182Z,79.23
2018-02-13T11:04:46.195Z,78.85
2018-02-13T11:05:46.222Z,78.75
2018-02-13T11:06:46.231Z,78.95
2018-02-13T11:07:46.265Z,78.95
2018-02-13T11:08:46.264Z,78.00
2018-02-13T11:09:46.281Z,78.75
2018-02-13T11:10:46.295Z,78.19
2018-02-13T11:11:46.309Z,78.95
2018-02-13T11:12:46.325Z,78.81
2018-02-13T11:13:46.336Z,78.09
2018-02-13T11:14:46.351Z,78.05
2018-02-13T11:15:46.371Z,78.62
2018-02-13T11:16:46.383Z,78.72
2018-02-13T11:17:46.396Z,79.10
2018-02-13T11:18:46.413Z,78.85
2018-02-13T11:19:46.471Z,78.28
2018-02-13T11:20:46.446Z,78.66
2018-02-13T11:21:46.459Z,78.85
2018-02-13T11:22:46.499Z,78.75
2018-02-13T11:23:46.487Z,78.28
2018-02-13T11:24:46.521Z,78.28
2018-02-13T11:25:46.612Z,78.38
2018-02-13T11:26:46.549Z,77.90
2018-02-13T11:27:46.560Z,77.62
2018-02-13T11:28:46.593Z,77.71
2018-02-13T11:29:46.594Z,77.24
2018-02-13T11:30:46.602Z,77.05
2018-02-13T11:31:46.612Z,77.33
2018-02-13T11:32:46.638Z,77.24
2018-02-13T11:33:46.656Z,77.81
2018-02-13T11:34:46.658Z,77.14
2018-02-13T11:35:46.673Z,76.57
2018-02-13T11:36:46.692Z,76.10
2018-02-13T11:37:46.707Z,76.20
2018-02-13T11:38:46.723Z,76.48
2018-02-13T11:39:46.738Z,76.48
2018-02-13T11:40:46.752Z,75.91
2018-02-13T11:41:46.768Z,75.91
2018-02-13T11:42:46.797Z,75.76
2018-02-13T11:43:46.803Z,75.76
2018-02-13T11:44:46.816Z,75.34
2018-02-13T11:45:46.834Z,75.43
2018-02-13T11:46:46.844Z,75.72
2018-02-13T11:47:46.874Z,75.62
2018-02-13T11:48:46.882Z,75.53
2018-02-13T11:49:46.902Z,75.85
2018-02-13T11:50:46.909Z,75.53
2018-02-13T11:51:46.938Z,75.38
2018-02-13T11:52:46.946Z,75.28
2018-02-13T11:53:46.956Z,75.53
2018-02-13T11:54:46.975Z,75.53
2018-02-13T11:55:46.986Z,75.81
2018-02-13T11:56:47.001Z,76.01
2018-02-13T11:57:47.019Z,75.72
2018-02-13T11:58:47.030Z,76.10
2018-02-13T11:59:47.056Z,75.81
2018-02-13T12:00:47.065Z,75.53
2018-02-13T12:01:47.079Z,75.34
2018-02-13T12:02:47.163Z,74.77
2018-02-13T12:03:47.120Z,74.81
2018-02-13T12:04:47.129Z,74.15
2018-02-13T12:05:47.145Z,74.05
2018-02-13T12:06:47.172Z,74.05
2018-02-13T12:07:47.175Z,74.05
2018-02-13T12:08:47.193Z,73.76
2018-02-13T12:09:47.230Z,74.05
2018-02-13T12:10:47.228Z,74.33
2018-02-13T12:11:47.242Z,75.09
2018-02-13T12:12:47.325Z,74.33
2018-02-13T12:13:47.280Z,74.43
2018-02-13T12:14:47.303Z,73.67
2018-02-13T12:15:47.347Z,73.48
2018-02-13T12:16:47.316Z,73.67
2018-02-13T12:17:47.329Z,73.67
2018-02-13T12:18:47.352Z,73.00
2018-02-13T12:19:47.363Z,72.91
2018-02-13T12:20:47.381Z,72.63
2018-02-13T12:21:47.410Z,72.63
2018-02-13T12:22:47.414Z,73.19
2018-02-13T12:23:47.483Z,73.10
2018-02-13T12:24:47.445Z,72.25
2018-02-13T12:25:47.458Z,72.44
2018-02-13T12:26:47.481Z,72.91
2018-02-13T12:27:47.488Z,73.57
2018-02-13T12:28:47.507Z,73.10
2018-02-13T12:29:47.525Z,72.91
2018-02-13T12:30:47.538Z,72.63
2018-02-13T12:31:47.556Z,72.72
2018-02-13T12:32:47.570Z,71.39
2018-02-13T12:33:47.587Z,71.58
2018-02-13T12:34:47.663Z,71.96
2018-02-13T12:35:47.621Z,71.77
2018-02-13T12:36:47.636Z,71.58
2018-02-13T12:37:47.652Z,71.96
2018-02-13T12:38:47.668Z,71.77
2018-02-13T12:39:47.683Z,71.58
2018-02-13T12:40:47.699Z,72.06
2018-02-13T12:41:47.715Z,71.77
2018-02-13T12:42:47.732Z,71.67
2018-02-13T12:43:47.744Z,71.11
2018-02-13T12:44:47.767Z,71.30
2018-02-13T12:45:47.777Z,71.20
2018-02-13T12:46:47.794Z,71.20
2018-02-13T12:47:47.813Z,71.11
2018-02-13T12:48:47.827Z,71.20
2018-02-13T12:49:47.846Z,71.96
2018-02-13T12:50:47.871Z,72.72
2018-02-13T12:51:47.879Z,72.44
2018-02-13T12:52:47.890Z,72.81